Time;durP1;ratioP1;P1;durP2;ratioP2;P2;SDS_P1;SDS_P2;PMS_P1;PMS_P2;Temp;Humidity;BMP_temperature;BMP_pressure;BME280_temperature;BME280_humidity;BME280_pressure;Samples;Min_cycle;Max_cycle;Signal;HPM_P1;HPM_P2
2020/12/11 00:00:39;;;;;;;51.50;24.70;;;;;;;6.83;71.21;99045.09;4178546;34;34374;-94
2020/12/11 00:03:12;;;;;;;57.70;24.50;;;;;;;6.84;71.07;99045.91;4180148;34;33817;-94
2020/12/11 00:05:44;;;;;;;51.78;21.83;;;;;;;6.74;71.60;99038.13;4178312;34;33437;-93
2020/12/11 00:08:19;;;;;;;45.00;21.48;;;;;;;6.63;71.76;99031.31;4165228;34;34547;-93
2020/12/11 00:10:51;;;;;;;42.08;22.02;;;;;;;6.44;72.64;99037.16;4188203;34;33854;-92
2020/12/11 00:13:24;;;;;;;47.45;22.48;;;;;;;6.61;71.98;99040.56;4197292;34;34071;-94
2020/12/11 00:16:00;;;;;;;47.55;22.73;;;;;;;6.58;72.19;99038.25;4189017;34;33522;-94
2020/12/11 00:18:47;;;;;;;38.33;19.37;;;;;;;6.35;72.31;99039.06;4200091;34;34608;-92
2020/12/11 00:21:19;;;;;;;46.37;21.80;;;;;;;6.40;72.59;99039.34;4189805;34;34364;-93
2020/12/11 00:23:54;;;;;;;38.60;20.45;;;;;;;6.37;72.78;99034.34;4180969;34;34471;-92
2020/12/11 00:26:26;;;;;;;40.15;21.10;;;;;;;6.31;72.73;99041.25;4192335;34;31904;-91
2020/12/11 00:28:58;;;;;;;42.95;21.92;;;;;;;6.28;73.02;99046.16;4204141;34;33642;-91
2020/12/11 00:31:30;;;;;;;43.17;20.35;;;;;;;6.34;72.87;99051.62;4193076;34;35209;-92
2020/12/11 00:34:04;;;;;;;44.30;22.23;;;;;;;6.55;72.16;99042.09;4190730;34;34273;-92
2020/12/11 00:36:36;;;;;;;59.25;22.55;;;;;;;6.45;72.82;99042.34;4203398;34;33382;-91
2020/12/11 00:39:09;;;;;;;52.28;23.40;;;;;;;6.36;73.15;99036.19;4191356;34;34656;-91
2020/12/11 00:41:42;;;;;;;48.55;22.10;;;;;;;6.59;72.27;99034.56;4192728;34;33625;-93
2020/12/11 00:44:14;;;;;;;42.22;20.08;;;;;;;6.37;73.08;99037.03;4204284;34;34472;-91
2020/12/11 00:46:46;;;;;;;47.75;21.73;;;;;;;6.50;72.51;99039.97;4198642;34;33994;-92
2020/12/11 00:49:19;;;;;;;57.30;22.42;;;;;;;6.17;73.52;99045.53;4200239;34;34615;-92
2020/12/11 00:51:53;;;;;;;46.83;20.85;;;;;;;6.49;72.72;99040.13;4188689;34;34828;-92
2020/12/11 00:54:26;;;;;;;48.70;22.05;;;;;;;6.13;73.55;99046.06;4200294;34;33784;-91
2020/12/11 00:56:59;;;;;;;44.78;22.10;;;;;;;6.44;72.64;99042.53;4201542;34;33044;-93
2020/12/11 00:59:34;;;;;;;55.00;22.58;;;;;;;6.24;73.32;99039.44;4177741;34;35088;-92
2020/12/11 01:02:07;;;;;;;48.58;23.92;;;;;;;6.18;73.52;99044.53;4187624;34;34292;-92
2020/12/11 01:04:39;;;;;;;50.95;21.80;;;;;;;6.22;73.30;99036.12;4201188;34;33835;-91
2020/12/11 01:07:11;;;;;;;41.03;21.25;;;;;;;6.23;73.32;99038.63;4179897;34;34356;-93
2020/12/11 01:09:59;;;;;;;45.10;21.52;;;;;;;6.32;73.09;99031.38;4208863;34;34445;-93
2020/12/11 01:12:31;;;;;;;39.60;21.40;;;;;;;6.03;73.70;99040.91;4187613;34;34743;-92
2020/12/11 01:15:04;;;;;;;43.85;22.48;;;;;;;5.93;74.10;99037.59;4191204;34;33588;-93
2020/12/11 01:17:37;;;;;;;42.33;21.73;;;;;;;6.39;72.45;99026.94;4190659;34;34581;-91
2020/12/11 01:20:10;;;;;;;38.42;20.70;;;;;;;6.29;73.03;99037.09;4178275;34;35384;-93
2020/12/11 01:22:42;;;;;;;35.03;19.70;;;;;;;6.30;72.81;99028.00;4192264;34;34673;-93
2020/12/11 01:25:32;;;;;;;40.03;22.37;;;;;;;6.37;72.66;99024.44;4213849;34;32832;-92
2020/12/11 01:28:04;;;;;;;37.08;19.85;;;;;;;6.40;72.47;99014.38;4202549;34;32462;-93
2020/12/11 01:30:48;;;;;;;39.05;20.67;;;;;;;6.56;72.18;99021.44;4195700;34;34691;-94
2020/12/11 01:33:21;;;;;;;40.03;21.02;;;;;;;6.43;72.38;99014.84;4174497;34;34711;-94
2020/12/11 01:36:05;;;;;;;35.60;19.98;;;;;;;6.37;72.35;99019.06;4194036;34;32645;-91
2020/12/11 01:38:38;;;;;;;39.60;21.92;;;;;;;6.35;72.52;99020.28;4193715;34;34355;-91
2020/12/11 01:41:10;;;;;;;39.97;20.98;;;;;;;6.57;71.74;99023.97;4204226;34;33100;-92
2020/12/11 01:43:43;;;;;;;39.00;20.85;;;;;;;6.51;71.92;99020.16;4194395;34;34710;-92
2020/12/11 01:46:16;;;;;;;33.75;19.12;;;;;;;6.58;71.60;99022.12;4201975;34;34587;-93
2020/12/11 01:48:49;;;;;;;35.45;19.95;;;;;;;6.58;71.53;99030.19;4189548;34;34593;-92
2020/12/11 01:51:36;;;;;;;31.20;18.15;;;;;;;6.97;70.37;99034.56;4186898;34;33895;-94
2020/12/11 01:54:08;;;;;;;37.45;20.08;;;;;;;6.88;70.81;99033.81;4189071;34;34981;-90
2020/12/11 01:56:47;;;;;;;37.38;20.77;;;;;;;6.86;71.03;99038.53;4179912;34;33882;-94
2020/12/11 01:59:24;;;;;;;36.30;19.60;;;;;;;6.68;71.47;99041.53;4165708;34;34284;-93
2020/12/11 02:02:32;;;;;;;36.55;19.50;;;;;;;6.67;71.33;99037.97;4196135;34;34366;-93
2020/12/11 02:05:06;;;;;;;38.80;19.17;;;;;;;7.02;70.00;99042.91;4202572;34;34728;-96
2020/12/11 02:07:53;;;;;;;39.90;20.58;;;;;;;7.00;70.07;99045.78;4215660;34;33095;-92
2020/12/11 02:10:26;;;;;;;41.63;21.08;;;;;;;6.61;71.30;99040.56;4218420;34;33083;-92
2020/12/11 02:13:06;;;;;;;38.72;21.25;;;;;;;6.66;71.05;99032.78;4217682;33;33100;-92
2020/12/11 02:15:40;;;;;;;36.17;20.05;;;;;;;6.41;71.95;99038.34;4195816;34;33426;-93
2020/12/11 02:18:25;;;;;;;33.85;19.73;;;;;;;6.48;71.53;99031.25;4218890;33;35869;-93
2020/12/11 02:20:58;;;;;;;41.80;22.70;;;;;;;6.38;71.86;99044.06;4193777;34;34102;-92
2020/12/11 02:23:30;;;;;;;32.65;19.92;;;;;;;6.26;72.48;99045.50;4180370;34;34267;-94
2020/12/11 02:26:03;;;;;;;35.47;19.05;;;;;;;6.36;72.11;99046.94;4180603;34;34814;-96
2020/12/11 02:29:07;;;;;;;31.70;18.62;;;;;;;6.16;72.63;99048.37;4219227;33;32900;-93
2020/12/11 02:31:39;;;;;;;38.03;20.73;;;;;;;6.10;72.87;99049.91;4207885;33;32144;-94
2020/12/11 02:34:28;;;;;;;33.15;18.77;;;;;;;5.90;73.59;99043.28;4190616;34;34126;-94
2020/12/11 02:37:01;;;;;;;40.72;21.33;;;;;;;5.99;73.33;99044.97;4216837;33;33931;-93
2020/12/11 02:39:34;;;;;;;38.83;20.73;;;;;;;5.98;73.50;99048.63;4218616;33;34708;-93
2020/12/11 02:42:06;;;;;;;55.65;20.83;;;;;;;6.07;73.22;99050.28;4219450;33;33959;-93
2020/12/11 02:44:39;;;;;;;38.60;19.87;;;;;;;6.24;72.77;99047.50;4193951;33;34337;-94
2020/12/11 02:47:14;;;;;;;61.55;22.15;;;;;;;6.24;72.76;99047.50;4209705;33;34339;-93
2020/12/11 02:49:47;;;;;;;56.47;22.20;;;;;;;5.91;73.99;99045.78;4209379;33;34025;-96
2020/12/11 02:52:32;;;;;;;41.92;20.83;;;;;;;6.16;73.10;99049.22;4205856;33;32980;-93
2020/12/11 02:55:05;;;;;;;56.28;23.73;;;;;;;6.19;72.98;99048.84;4202522;34;33880;-92
2020/12/11 02:57:37;;;;;;;43.80;20.02;;;;;;;6.18;72.95;99052.56;4189471;34;35646;-95
2020/12/11 03:00:21;;;;;;;50.83;20.33;;;;;;;6.22;73.02;99046.84;4186971;34;34748;-92
2020/12/11 03:02:54;;;;;;;45.75;22.58;;;;;;;5.81;74.09;99045.19;4181660;34;33487;-92
2020/12/11 03:05:27;;;;;;;45.97;20.55;;;;;;;5.72;74.26;99051.56;4174902;34;34310;-92
2020/12/11 03:07:59;;;;;;;43.10;22.50;;;;;;;6.25;72.65;99041.13;4187086;34;34909;-93
2020/12/11 03:10:32;;;;;;;39.08;21.60;;;;;;;6.04;73.23;99037.22;4179753;34;34042;-93
2020/12/11 03:13:04;;;;;;;50.63;20.37;;;;;;;6.32;72.24;99037.56;4190842;34;33206;-93
2020/12/11 03:15:48;;;;;;;40.60;22.50;;;;;;;5.95;73.07;99035.56;4171681;34;32919;-92
2020/12/11 03:18:21;;;;;;;46.15;21.25;;;;;;;5.99;73.01;99039.59;4177757;34;34341;-92
2020/12/11 03:20:54;;;;;;;45.33;20.20;;;;;;;5.91;73.50;99031.53;4178450;34;35794;-92
2020/12/11 03:23:26;;;;;;;44.25;21.08;;;;;;;6.01;73.17;99029.50;4188071;34;32998;-92
2020/12/11 03:26:01;;;;;;;42.58;21.85;;;;;;;5.65;74.40;99035.34;4177638;34;32814;-92
2020/12/11 03:28:33;;;;;;;42.25;20.80;;;;;;;5.96;73.49;99029.19;4178032;34;35029;-92
2020/12/11 03:31:06;;;;;;;39.60;20.73;;;;;;;6.02;73.38;99031.19;4178773;34;35858;-92
2020/12/11 03:33:38;;;;;;;39.17;20.15;;;;;;;6.30;72.23;99022.62;4176112;34;34358;-92
2020/12/11 03:36:12;;;;;;;37.83;19.80;;;;;;;5.94;73.45;99033.87;4186613;34;34083;-93
2020/12/11 03:38:44;;;;;;;37.67;21.17;;;;;;;6.11;72.61;99029.31;4188255;34;32849;-92
2020/12/11 03:41:16;;;;;;;40.15;22.10;;;;;;;5.78;73.87;99032.13;4187623;34;33598;-94
2020/12/11 03:43:49;;;;;;;36.85;20.85;;;;;;;5.99;73.12;99031.53;4177096;34;34343;-92
2020/12/11 03:46:22;;;;;;;36.78;20.20;;;;;;;5.84;73.35;99029.56;4182528;34;33560;-92
2020/12/11 03:48:54;;;;;;;41.55;23.25;;;;;;;6.14;72.38;99035.16;4176213;34;33977;-93
2020/12/11 03:51:27;;;;;;;44.15;24.80;;;;;;;6.24;72.06;99039.44;4165287;34;34197;-92
2020/12/11 03:54:00;;;;;;;41.75;22.40;;;;;;;6.25;72.40;99035.75;4166461;34;33702;-92
2020/12/11 03:56:33;;;;;;;32.58;19.33;;;;;;;6.50;71.56;99031.09;4189804;34;33871;-93
2020/12/11 03:59:05;;;;;;;39.50;20.05;;;;;;;6.16;72.01;99030.44;4189638;34;34466;-92
2020/12/11 04:01:38;;;;;;;43.22;20.45;;;;;;;5.98;72.64;99024.50;4191588;34;35372;-92
2020/12/11 04:04:11;;;;;;;37.10;19.58;;;;;;;5.90;73.24;99027.19;4178660;34;33882;-91
2020/12/11 04:06:43;;;;;;;35.13;20.23;;;;;;;6.34;71.59;99018.59;4190156;34;34270;-93
2020/12/11 04:09:16;;;;;;;33.78;19.45;;;;;;;6.10;72.07;99022.25;4191330;34;34332;-93
2020/12/11 04:11:48;;;;;;;35.60;22.45;;;;;;;6.05;71.86;99032.66;4188542;34;34144;-92
2020/12/11 04:14:21;;;;;;;35.60;20.00;;;;;;;5.51;73.66;99028.84;4190653;34;33824;-93
2020/12/11 04:16:53;;;;;;;33.75;20.33;;;;;;;5.75;73.18;99019.88;4192083;34;33213;-92
2020/12/11 04:19:26;;;;;;;31.10;18.67;;;;;;;5.97;72.50;99022.81;4191007;34;34302;-92
2020/12/11 04:22:00;;;;;;;32.40;19.02;;;;;;;6.01;72.57;99014.25;4180655;34;34242;-92
2020/12/11 04:24:33;;;;;;;33.95;20.50;;;;;;;6.18;71.91;99019.53;4168938;34;33513;-93
2020/12/11 04:27:05;;;;;;;33.35;19.05;;;;;;;6.01;72.33;99021.47;4168009;34;34158;-94
2020/12/11 04:29:50;;;;;;;29.55;18.95;;;;;;;5.97;72.02;99022.81;4188409;34;33956;-94
2020/12/11 04:32:22;;;;;;;28.33;18.05;;;;;;;5.89;72.30;99025.53;4177940;34;33993;-93
2020/12/11 04:35:09;;;;;;;28.17;18.42;;;;;;;5.87;72.04;99023.00;4170392;34;34139;-93
2020/12/11 04:37:43;;;;;;;24.50;16.08;;;;;;;5.99;71.87;99018.97;4185877;34;35136;-95
2020/12/11 04:40:40;;;;;;;25.77;16.85;;;;;;;6.16;70.58;99017.00;4092648;34;37263;-92
2020/12/11 04:43:13;;;;;;;23.85;14.95;;;;;;;6.21;71.01;99024.53;4176021;34;33250;-92
2020/12/11 04:45:48;;;;;;;23.75;15.43;;;;;;;5.96;70.92;99023.81;4188496;34;33406;-93
2020/12/11 04:48:21;;;;;;;23.48;15.77;;;;;;;6.15;70.30;99026.09;4180803;34;34347;-94
2020/12/11 04:51:17;;;;;;;48.42;25.92;;;;;;;6.03;71.00;99018.59;4184615;34;34158;-93
2020/12/11 04:53:52;;;;;;;35.50;21.45;;;;;;;6.17;70.49;99023.22;4183380;34;33813;-94
2020/12/11 04:56:40;;;;;;;31.67;18.20;;;;;;;6.32;70.19;99016.09;4171543;34;34737;-94
2020/12/11 04:59:13;;;;;;;55.03;30.42;;;;;;;6.36;69.86;99020.09;4191688;34;33905;-96
2020/12/11 05:01:55;;;;;;;47.15;27.98;;;;;;;6.30;70.26;99019.94;4167339;34;33377;-95
2020/12/11 05:04:28;;;;;;;30.70;21.12;;;;;;;6.44;70.06;99024.56;4175828;34;35293;-95
2020/12/11 05:07:41;;;;;;;36.22;23.08;;;;;;;6.53;69.47;99025.34;4167764;33;35376;-92
2020/12/11 05:10:14;;;;;;;32.22;19.55;;;;;;;6.54;69.11;99024.31;4197973;34;34422;-93
2020/12/11 05:12:51;;;;;;;40.67;25.15;;;;;;;6.59;68.98;99026.50;4179377;34;36034;-94
2020/12/11 05:15:23;;;;;;;36.97;21.60;;;;;;;6.60;69.44;99028.16;4197886;34;34374;-92
2020/12/11 05:17:55;;;;;;;35.05;21.52;;;;;;;6.57;69.48;99034.69;4201946;34;34335;-93
2020/12/11 05:20:28;;;;;;;31.12;19.10;;;;;;;6.65;69.43;99041.88;4190561;34;34926;-93
2020/12/11 05:23:16;;;;;;;27.67;17.80;;;;;;;6.80;69.07;99029.34;4211493;34;34039;-93
2020/12/11 05:25:48;;;;;;;25.12;17.37;;;;;;;6.46;68.98;99033.28;4192179;34;34476;-91
2020/12/11 05:28:21;;;;;;;24.80;16.23;;;;;;;6.37;69.35;99034.34;4179312;34;33886;-94
2020/12/11 05:31:05;;;;;;;21.33;15.88;;;;;;;6.57;69.14;99036.56;4181770;34;34481;-93
2020/12/11 05:33:38;;;;;;;22.92;15.75;;;;;;;6.61;69.07;99040.56;4194697;34;35580;-94
2020/12/11 05:36:11;;;;;;;24.83;17.73;;;;;;;6.75;68.70;99042.47;4192079;34;34138;-92
2020/12/11 05:38:46;;;;;;;22.98;15.15;;;;;;;6.75;68.98;99042.47;4204732;34;35086;-92
2020/12/11 05:41:35;;;;;;;21.50;14.57;;;;;;;6.54;69.00;99046.66;4183002;34;34548;-93
2020/12/11 05:44:25;;;;;;;23.55;16.23;;;;;;;6.33;69.45;99043.75;4207300;34;33437;-93
2020/12/11 05:47:15;;;;;;;20.62;14.00;;;;;;;6.51;68.96;99035.41;4206630;34;34831;-93
2020/12/11 05:50:10;;;;;;;21.95;15.02;;;;;;;6.56;68.43;99043.78;4204983;34;33948;-92
2020/12/11 05:52:43;;;;;;;24.73;15.75;;;;;;;6.69;68.60;99043.19;4206439;33;34634;-92
2020/12/11 05:55:32;;;;;;;23.38;15.63;;;;;;;6.71;68.78;99046.53;4218687;33;32690;-93
2020/12/11 05:58:07;;;;;;;27.33;16.10;;;;;;;6.24;69.86;99048.31;4221130;33;34998;-93
2020/12/11 06:00:54;;;;;;;;;;;;;;;6.28;69.30;99048.81;4216865;34;34095;-93
2020/12/11 06:03:29;;;;;;;22.98;15.77;;;;;;;6.11;70.06;99048.09;4200202;34;32878;-92
2020/12/11 06:06:02;;;;;;;21.05;14.20;;;;;;;6.32;69.49;99047.47;4217649;34;34695;-91
2020/12/11 06:08:34;;;;;;;21.73;15.38;;;;;;;6.45;69.09;99046.88;4207793;34;34049;-91
2020/12/11 06:11:07;;;;;;;22.90;16.58;;;;;;;6.52;69.02;99048.66;4228031;33;34267;-90
2020/12/11 06:13:56;;;;;;;25.52;16.73;;;;;;;6.43;69.44;99049.72;4217831;34;33697;-95
2020/12/11 06:16:30;;;;;;;22.80;15.73;;;;;;;6.39;69.35;99045.72;4217614;34;34770;-92
2020/12/11 06:19:04;;;;;;;21.77;15.50;;;;;;;6.70;68.23;99044.84;4215891;34;34018;-94
2020/12/11 06:21:37;;;;;;;21.83;15.45;;;;;;;6.35;69.29;99047.13;4202139;34;33104;-93
2020/12/11 06:24:29;;;;;;;22.35;15.55;;;;;;;6.18;69.64;99049.03;4201559;34;34838;-93
2020/12/11 06:27:03;;;;;;;23.80;16.00;;;;;;;6.20;69.90;99047.03;4215260;34;34685;-96
2020/12/11 06:29:49;;;;;;;20.90;15.48;;;;;;;6.41;68.49;99032.97;4193527;34;34068;-90
2020/12/11 06:32:35;;;;;;;19.77;14.48;;;;;;;6.36;68.44;99024.59;4204308;34;34168;-96
2020/12/11 06:35:27;;;;;;;22.13;15.55;;;;;;;6.46;68.52;99025.22;4192487;34;32362;-96
2020/12/11 06:37:59;;;;;;;23.60;16.02;;;;;;;6.17;69.27;99026.75;4199532;34;34243;-93
2020/12/11 06:40:49;;;;;;;24.48;15.63;;;;;;;6.10;70.23;99025.78;4189200;34;32786;-94
2020/12/11 06:43:36;;;;;;;22.77;15.38;;;;;;;6.32;69.64;99023.31;4167978;34;32476;-93
2020/12/11 06:46:20;;;;;;;23.75;16.45;;;;;;;6.31;69.85;99021.62;4201422;34;34517;-96
2020/12/11 06:49:22;;;;;;;23.85;17.60;;;;;;;6.32;69.88;99015.25;4192198;34;34721;-95
2020/12/11 06:52:10;;;;;;;23.67;16.55;;;;;;;6.60;69.00;99025.47;4196891;34;34362;-96
2020/12/11 06:54:42;;;;;;;26.42;16.85;;;;;;;6.51;69.23;99030.03;4202230;34;33910;-96
2020/12/11 06:57:35;;;;;;;26.42;16.62;;;;;;;6.39;69.04;99037.66;4190898;34;34303;-93
2020/12/11 07:00:30;;;;;;;24.50;17.83;;;;;;;6.71;68.54;99035.78;4193622;34;32827;-94
2020/12/11 07:03:14;;;;;;;26.20;18.55;;;;;;;6.28;69.70;99036.22;4202512;34;34969;-93
2020/12/11 07:05:55;;;;;;;25.40;18.58;;;;;;;6.59;68.49;99037.22;4192864;34;32366;-94
2020/12/11 07:08:40;;;;;;;25.40;17.80;;;;;;;6.43;69.51;99038.16;4201729;34;32710;-93
2020/12/11 07:11:13;;;;;;;24.95;17.52;;;;;;;6.64;68.82;99038.34;4181964;34;34117;-93
2020/12/11 07:13:48;;;;;;;21.65;14.68;;;;;;;6.55;68.81;99031.38;4179598;34;35209;-93
2020/12/11 07:16:20;;;;;;;25.40;17.55;;;;;;;6.74;68.51;99034.56;4190208;34;33006;-92
2020/12/11 07:18:53;;;;;;;26.52;18.00;;;;;;;6.84;68.09;99036.03;4183764;34;33084;-95
2020/12/11 07:21:29;;;;;;;25.37;17.20;;;;;;;6.95;67.68;99036.62;4175940;34;34193;-91
2020/12/11 07:24:01;;;;;;;21.70;16.45;;;;;;;6.66;68.59;99039.03;4176527;34;33626;-91
2020/12/11 07:26:34;;;;;;;23.15;15.95;;;;;;;6.65;68.85;99039.19;4187764;34;34288;-90
2020/12/11 07:29:07;;;;;;;55.10;33.10;;;;;;;7.02;67.25;99032.16;4189260;34;33787;-90
2020/12/11 07:31:41;;;;;;;28.38;17.75;;;;;;;6.87;67.54;99030.28;4176086;34;35136;-94
2020/12/11 07:34:37;;;;;;;27.52;18.08;;;;;;;6.85;67.86;99037.69;4175153;34;34605;-93
2020/12/11 07:37:09;;;;;;;22.05;15.68;;;;;;;6.90;67.72;99042.50;4159265;34;32558;-91
2020/12/11 07:39:41;;;;;;;21.00;14.90;;;;;;;6.77;68.20;99042.31;4174123;34;34198;-94
2020/12/11 07:42:20;;;;;;;21.45;15.75;;;;;;;6.94;67.17;99035.75;4163321;34;33757;-96
2020/12/11 07:45:10;;;;;;;21.77;14.55;;;;;;;7.09;66.38;99035.78;4182123;34;34159;-92
2020/12/11 07:47:44;;;;;;;22.10;14.82;;;;;;;7.07;65.98;99040.53;4173462;34;32538;-95
2020/12/11 07:50:32;;;;;;;21.75;14.75;;;;;;;6.95;66.37;99047.38;4189205;34;32998;-96
2020/12/11 07:53:10;;;;;;;20.27;13.95;;;;;;;6.77;67.53;99045.00;4175413;34;32441;-96
2020/12/11 07:55:55;;;;;;;12.32;8.30;;;;;;;6.78;67.48;99042.13;4172007;34;34289;-92
2020/12/11 07:58:28;;;;;;;14.13;9.80;;;;;;;6.83;64.83;99044.25;4172785;34;33475;-92
2020/12/11 08:01:02;;;;;;;11.00;8.27;;;;;;;7.04;66.08;99040.91;4161776;34;33474;-95
2020/12/11 08:03:47;;;;;;;16.25;11.05;;;;;;;7.05;66.57;99042.53;4191526;34;34508;-93
2020/12/11 08:06:19;;;;;;;16.20;12.15;;;;;;;6.54;65.32;99046.66;4176408;34;33527;-92
2020/12/11 08:08:53;;;;;;;20.48;14.65;;;;;;;6.99;64.97;99036.06;4174827;34;33436;-92
2020/12/11 08:11:26;;;;;;;16.00;12.50;;;;;;;6.76;66.62;99033.37;4185900;34;35609;-95
2020/12/11 08:14:11;;;;;;;20.58;13.82;;;;;;;7.16;65.07;99028.69;4174921;34;35509;-96
2020/12/11 08:16:43;;;;;;;19.83;13.10;;;;;;;7.13;65.25;99034.41;4173982;34;34503;-92
2020/12/11 08:19:16;;;;;;;17.77;13.02;;;;;;;7.11;65.31;99032.94;4185645;34;33138;-91
2020/12/11 08:21:48;;;;;;;16.37;11.63;;;;;;;6.50;65.43;99034.59;4175511;34;33866;-92
2020/12/11 08:24:28;;;;;;;14.27;10.07;;;;;;;6.49;66.21;99030.22;4185778;34;33754;-90
2020/12/11 08:27:01;;;;;;;11.65;8.90;;;;;;;6.85;62.89;99028.78;4177656;34;35179;-96
2020/12/11 08:30:10;;;;;;;13.02;9.98;;;;;;;6.66;62.87;99024.75;4192598;28;31448;31
2020/12/11 08:32:47;;;;;;;11.93;9.25;;;;;;;6.97;63.44;99024.66;4209938;34;32720;-96
2020/12/11 08:35:43;;;;;;;14.25;10.25;;;;;;;7.32;61.67;99024.16;4200668;34;32694;-96
2020/12/11 08:38:18;;;;;;;;;;;;;;;7.17;62.63;99014.25;4214394;28;33390;-91
2020/12/11 08:41:22;;;;;;;11.77;9.00;;;;;;;7.16;63.63;99015.25;4191396;34;32208;-92
2020/12/11 08:43:55;;;;;;;16.87;11.93;;;;;;;6.56;65.03;99016.09;4187290;34;32888;-96
2020/12/11 08:46:57;;;;;;;14.82;11.40;;;;;;;6.85;64.90;99016.19;4190232;34;33133;-92
2020/12/11 08:49:52;;;;;;;15.18;11.20;;;;;;;6.27;64.97;99006.88;4200964;34;33285;-94
2020/12/11 08:52:38;;;;;;;16.80;12.55;;;;;;;6.44;64.83;99004.97;4190598;34;34892;-96
2020/12/11 08:55:10;;;;;;;16.95;12.52;;;;;;;7.00;64.98;99002.78;4211019;33;32967;-96
2020/12/11 08:57:55;;;;;;;15.07;12.07;;;;;;;7.28;62.86;99009.44;4183320;34;33099;-93
2020/12/11 09:00:27;;;;;;;14.95;11.73;;;;;;;6.94;63.14;99010.75;4165424;34;32608;-93
2020/12/11 09:03:05;;;;;;;14.45;11.05;;;;;;;6.89;62.20;99001.38;4214173;33;34098;-95
2020/12/11 09:05:37;;;;;;;17.95;12.05;;;;;;;6.87;62.80;98997.19;4184620;34;33713;-92
2020/12/11 09:08:11;;;;;;;16.85;12.63;;;;;;;7.11;63.46;98990.78;4201375;34;33883;-93
2020/12/11 09:10:56;;;;;;;15.07;11.55;;;;;;;7.21;64.17;99004.75;4186192;34;35066;-92
2020/12/11 09:13:30;;;;;;;14.27;11.38;;;;;;;7.07;63.29;99013.66;4165086;34;33235;-93
2020/12/11 09:16:02;;;;;;;14.87;11.07;;;;;;;6.96;62.87;99019.47;4188950;34;34767;-94
2020/12/11 09:18:47;;;;;;;14.95;10.50;;;;;;;7.18;61.82;99004.31;4190060;34;34279;-93
2020/12/11 09:21:20;;;;;;;14.30;11.12;;;;;;;7.40;61.33;98998.03;4196873;34;33199;-95
2020/12/11 09:24:05;;;;;;;14.43;11.23;;;;;;;7.33;62.79;98993.56;4201211;34;33609;-93
2020/12/11 09:26:37;;;;;;;15.38;12.27;;;;;;;7.14;62.95;98985.03;4214795;34;34144;-92
2020/12/11 09:31:46;;;;;;;19.20;13.85;;;;;;;6.27;63.84;98974.69;4229592;33;33911;-94
2020/12/11 09:34:34;;;;;;;20.05;15.07;;;;;;;6.29;64.84;98984.25;4191676;34;34442;-96
2020/12/11 09:37:07;;;;;;;21.65;15.75;;;;;;;5.74;67.67;98975.28;4181183;34;36417;-96
2020/12/11 09:39:51;;;;;;;23.10;16.42;;;;;;;5.79;66.74;98967.56;4209375;34;20096;-94
2020/12/11 09:56:25;;;;;;;25.23;18.40;;;;;;;5.71;66.78;98948.00;4212019;34;35967;-94
2020/12/11 09:59:01;;;;;;;25.88;18.52;;;;;;;6.47;65.32;98948.22;4189423;34;33183;-96
2020/12/11 10:04:42;;;;;;;29.00;20.50;;;;;;;6.34;67.24;98954.19;4198680;34;35984;-93
2020/12/11 10:07:14;;;;;;;28.75;21.80;;;;;;;6.33;66.61;98953.34;4201884;34;33293;-96
2020/12/11 10:09:48;;;;;;;32.17;22.35;;;;;;;6.48;65.67;98950.72;4193234;34;34685;-96
2020/12/11 10:12:24;;;;;;;28.60;20.27;;;;;;;6.68;65.19;98942.16;4182247;34;34397;-96
2020/12/11 10:15:10;;;;;;;26.30;19.58;;;;;;;6.44;65.70;98952.09;4186348;34;32949;-93
2020/12/11 10:18:04;;;;;;;25.35;17.30;;;;;;;6.96;64.35;98947.78;4210082;34;32393;-95
2020/12/11 10:20:57;;;;;;;23.10;16.27;;;;;;;6.18;65.61;98947.94;4214765;33;32777;-95
2020/12/11 10:23:31;;;;;;;21.12;16.40;;;;;;;6.74;63.64;98938.75;4204704;34;34783;-96
2020/12/11 10:26:29;;;;;;;23.58;17.17;;;;;;;6.89;62.96;98934.22;4396490;28;32950;-95
2020/12/11 10:29:20;;;;;;;21.15;15.05;;;;;;;6.91;64.23;98927.84;4184375;34;32427;-95
2020/12/11 10:32:05;;;;;;;20.55;15.45;;;;;;;6.88;63.37;98924.47;4184430;34;32672;-96
2020/12/11 10:34:40;;;;;;;18.73;14.55;;;;;;;6.29;66.41;98919.81;4193549;34;32868;-96
2020/12/11 10:37:31;;;;;;;20.02;14.57;;;;;;;6.40;65.15;98915.88;4199502;34;32729;-96
2020/12/11 10:40:04;;;;;;;19.92;15.32;;;;;;;6.70;65.51;98918.63;4187931;34;32289;-96
2020/12/11 10:42:50;;;;;;;19.90;14.27;;;;;;;6.87;65.02;98913.94;4184558;34;33003;-93
2020/12/11 10:45:23;;;;;;;16.75;13.05;;;;;;;6.38;66.35;98920.59;4191399;34;35883;-94
2020/12/11 10:48:07;;;;;;;18.25;13.48;;;;;;;6.16;66.49;98920.41;4217535;33;34616;-93
2020/12/11 10:50:40;;;;;;;21.45;14.63;;;;;;;6.13;65.66;98918.09;4217300;34;35485;-94
2020/12/11 10:53:24;;;;;;;20.30;14.52;;;;;;;6.27;66.09;98907.59;4224562;33;32485;-94
2020/12/11 10:55:56;;;;;;;19.75;13.80;;;;;;;6.81;64.31;98911.97;4211562;33;34545;-93
2020/12/11 10:58:29;;;;;;;24.30;14.48;;;;;;;6.34;65.57;98916.59;4215111;33;32770;-94
2020/12/11 11:01:04;;;;;;;20.98;14.05;;;;;;;6.57;65.39;98907.69;4209626;34;33520;-95
2020/12/11 11:03:56;;;;;;;22.15;16.52;;;;;;;6.54;65.75;98908.88;4187960;34;35471;-95
2020/12/11 11:06:35;;;;;;;20.62;16.12;;;;;;;5.75;67.99;98904.56;4184655;34;33547;-94
2020/12/11 11:09:17;;;;;;;28.67;20.27;;;;;;;6.24;66.77;98889.16;4199370;34;33835;-94
2020/12/11 11:18:24;;;;;;;25.83;18.48;;;;;;;6.03;67.00;98881.78;4219480;33;34725;-96
2020/12/11 11:27:48;;;;;;;26.12;17.50;;;;;;;5.88;67.56;98879.84;4183408;34;33832;-95
2020/12/11 11:30:41;;;;;;;26.10;18.42;;;;;;;6.21;66.02;98874.25;4177099;34;33254;-96
2020/12/11 11:34:28;;;;;;;25.73;18.50;;;;;;;5.71;68.04;98873.75;4236625;28;33906;-96
2020/12/11 11:37:03;;;;;;;26.98;19.12;;;;;;;6.26;66.28;98873.75;4190160;34;32657;-96
2020/12/11 11:39:54;;;;;;;25.77;18.40;;;;;;;6.26;66.48;98871.06;4161851;34;33212;-96
2020/12/11 11:42:27;;;;;;;27.65;19.37;;;;;;;6.09;67.07;98867.66;4182578;34;32823;-95
2020/12/11 11:45:17;;;;;;;25.02;18.40;;;;;;;6.18;66.91;98866.56;4172877;34;33171;-96
2020/12/11 11:47:55;;;;;;;26.48;18.77;;;;;;;6.17;67.34;98870.28;4269198;28;32810;-93
2020/12/11 11:58:50;;;;;;;29.33;18.98;;;;;;;5.79;67.91;98862.12;4162472;34;33040;-90
2020/12/11 12:02:18;;;;;;;26.75;17.60;;;;;;;6.08;67.00;98869.50;4204277;34;32914;-95
2020/12/11 12:08:49;;;;;;;26.15;17.55;;;;;;;5.81;68.18;98855.59;4177110;34;34112;-92
2020/12/11 12:11:38;;;;;;;26.27;17.95;;;;;;;6.06;67.02;98860.78;4176772;34;33593;-96
2020/12/11 12:14:29;;;;;;;27.37;19.37;;;;;;;5.76;67.85;98855.31;4175360;34;32855;-93
2020/12/11 12:17:07;;;;;;;28.42;19.12;;;;;;;5.70;68.62;98847.94;4203160;34;33593;-94
2020/12/11 12:19:45;;;;;;;29.73;19.85;;;;;;;5.43;69.18;98838.56;4203313;34;33806;-92
2020/12/11 13:06:47;;;;;;;21.62;14.45;;;;;;;5.47;69.48;98807.72;4551755;28;20461;-93
2020/12/11 13:09:20;;;;;;;24.90;16.15;;;;;;;5.19;70.21;98802.84;4191146;34;34595;-94
2020/12/11 13:12:23;;;;;;;20.85;15.15;;;;;;;5.43;69.67;98799.22;4192727;34;34364;-93
2020/12/11 13:19:43;;;;;;;22.60;16.37;;;;;;;5.86;68.48;98809.47;4146092;34;35030;-95
2020/12/11 13:27:54;;;;;;;26.20;18.37;;;;;;;5.57;69.31;98812.84;4211513;33;34233;-91
2020/12/11 13:30:27;;;;;;;30.45;20.35;;;;;;;5.24;70.25;98813.03;4182643;34;33632;-94
2020/12/11 13:33:06;;;;;;;27.70;19.85;;;;;;;4.85;71.61;98813.88;4181528;34;34252;-96
2020/12/11 13:35:48;;;;;;;28.87;19.97;;;;;;;5.12;71.00;98809.94;4186554;34;32776;-95
2020/12/11 13:38:51;;;;;;;32.47;23.25;;;;;;;4.92;71.76;98814.88;4198150;34;34896;-95
2020/12/11 13:41:38;;;;;;;30.00;19.60;;;;;;;5.29;70.41;98814.19;4177463;34;33378;-92
2020/12/11 13:44:11;;;;;;;28.17;19.62;;;;;;;5.43;70.35;98815.31;4197784;34;33987;-91
2020/12/11 13:46:44;;;;;;;27.70;20.12;;;;;;;5.17;71.15;98814.78;4178724;34;34679;-92
2020/12/11 13:49:36;;;;;;;26.95;18.58;;;;;;;5.42;70.36;98812.78;4172904;34;34386;-91
2020/12/11 13:52:09;;;;;;;27.20;19.02;;;;;;;5.63;69.91;98806.81;4176770;34;34835;-92
2020/12/11 13:54:46;;;;;;;26.55;18.17;;;;;;;5.57;69.68;98810.16;4166042;34;34044;-92
2020/12/11 13:57:54;;;;;;;27.58;18.73;;;;;;;5.65;69.50;98821.66;4148945;34;35214;-92
2020/12/11 14:00:58;;;;;;;31.15;19.08;;;;;;;5.37;70.73;98809.81;4166130;34;34750;-92